Antilles Vi — 3EKX6 — position and weather

sailwx.info

Track history (hours):
 
Tides and Currents Weather Stations Pressure Air Temp Water Temp Dewpoint Dewpoint Depression Visibility Wind Speed Wind Dir Waves Ship Positions

Antilles Vi

Last reported at 2018-Apr-17 18:36 UTC. Time now 2018-Apr-22 03:08 UTC.
Position S 28°07' E 153°58'.

Length 170 m; draft 7 m.

Type: Cargo ship. MMSI: 373622000.

Date/timePositionNaut miles runAvg speedWind from/ knotsBaromVisibWave heightAir tempDewpointWater temp
2018-Apr-17 18:36S 28°07' E 153°58'211.4
2018-Apr-17 18:24S 28°10' E 153°58'511.4
2018-Apr-17 18:00S 28°14' E 153°57'1211.2
2018-Apr-17 16:55S 28°26' E 153°56'25510.9
2018-Apr-16 17:28S 32°35' E 152°50'510.4
2018-Apr-16 17:00S 32°39' E 152°48'510.3
2018-Apr-16 16:30S 32°44' E 152°45'510.2
2018-Apr-16 16:00S 32°49' E 152°43'510.1
2018-Apr-16 15:30S 32°53' E 152°40'1712.0
2018-Apr-16 14:04S 33°09' E 152°32'113.4
2018-Apr-16 14:00S 33°10' E 152°31'5514.2
2018-Apr-16 10:08S 34°00' E 152°04'214.6
2018-Apr-16 10:00S 34°02' E 152°03'  
2018-Apr-12 14:57S 37°49' E 144°56'3 0.8
2018-Apr-12 11:34S 37°52' E 144°55'1 8.4
2018-Apr-12 11:30S 37°53' E 144°56'510.0
2018-Apr-12 10:59S 37°58' E 144°55'3 5.6
2018-Apr-12 10:25S 38°01' E 144°56'4 6.9
2018-Apr-12 09:53S 38°05' E 144°56'367 8.3
2018-Apr-10 13:39S 34°47' E 138°31'1 5.9
2018-Apr-10 13:30S 34°48' E 138°31'2 0.7
2018-Apr-10 10:04S 34°50' E 138°30'0 0.0
2018-Apr-10 10:01S 34°50' E 138°30'0 0.0
2018-Apr-09 07:38S 34°50' E 138°30'0 0.0
2018-Apr-09 07:30S 34°50' E 138°30'3 0.2
2018-Apr-08 13:37S 34°47' E 138°31'1 6.5
2018-Apr-08 13:30S 34°47' E 138°31'4 5.8
2018-Apr-08 12:49S 34°48' E 138°26'  
Track history (hours):
 
Tides and Currents Weather Stations Pressure Air Temp Water Temp Dewpoint Dewpoint Depression Visibility Wind Speed Wind Dir Waves Ship Positions

Antilles Vi

Last reported at 2018-Apr-17 18:36 UTC. Time now 2018-Apr-22 03:08 UTC.
Position S 28°07' E 153°58'.

Length 170 m; draft 7 m.

Type: Cargo ship. MMSI: 373622000.

Date/timePositionNaut miles runAvg speedWind from/ knotsBaromVisibWave heightAir tempDewpointWater temp
2018-Apr-17 18:36S 28°07' E 153°58'211.4
2018-Apr-17 18:24S 28°10' E 153°58'511.4
2018-Apr-17 18:00S 28°14' E 153°57'1211.2
2018-Apr-17 16:55S 28°26' E 153°56'25510.9
2018-Apr-16 17:28S 32°35' E 152°50'510.4
2018-Apr-16 17:00S 32°39' E 152°48'510.3
2018-Apr-16 16:30S 32°44' E 152°45'510.2
2018-Apr-16 16:00S 32°49' E 152°43'510.1
2018-Apr-16 15:30S 32°53' E 152°40'1712.0
2018-Apr-16 14:04S 33°09' E 152°32'113.4
2018-Apr-16 14:00S 33°10' E 152°31'5514.2
2018-Apr-16 10:08S 34°00' E 152°04'214.6
2018-Apr-16 10:00S 34°02' E 152°03'  
2018-Apr-12 14:57S 37°49' E 144°56'3 0.8
2018-Apr-12 11:34S 37°52' E 144°55'1 8.4
2018-Apr-12 11:30S 37°53' E 144°56'510.0
2018-Apr-12 10:59S 37°58' E 144°55'3 5.6
2018-Apr-12 10:25S 38°01' E 144°56'4 6.9
2018-Apr-12 09:53S 38°05' E 144°56'367 8.3
2018-Apr-10 13:39S 34°47' E 138°31'1 5.9
2018-Apr-10 13:30S 34°48' E 138°31'2 0.7
2018-Apr-10 10:04S 34°50' E 138°30'0 0.0
2018-Apr-10 10:01S 34°50' E 138°30'0 0.0
2018-Apr-09 07:38S 34°50' E 138°30'0 0.0
2018-Apr-09 07:30S 34°50' E 138°30'3 0.2
2018-Apr-08 13:37S 34°47' E 138°31'1 6.5
2018-Apr-08 13:30S 34°47' E 138°31'4 5.8
2018-Apr-08 12:49S 34°48' E 138°26'  

Dump ship's entire track history